sensor_id;sensor_type;location;lat;lon;timestamp;pressure;altitude;pressure_sealevel;temperature;humidity
41862;BME280;27537;57.134;-2.136;2023-05-23T00:01:47;102118.09;;;11.67;100.00
41862;BME280;27537;57.134;-2.136;2023-05-23T00:04:15;102110.44;;;11.57;100.00
41862;BME280;27537;57.134;-2.136;2023-05-23T00:06:44;102095.50;;;11.61;100.00
41862;BME280;27537;57.134;-2.136;2023-05-23T00:09:13;102112.91;;;11.65;100.00
41862;BME280;27537;57.134;-2.136;2023-05-23T00:11:40;102103.56;;;11.50;100.00
41862;BME280;27537;57.134;-2.136;2023-05-23T00:14:12;102107.91;;;11.53;100.00
41862;BME280;27537;57.134;-2.136;2023-05-23T00:16:44;102103.47;;;11.56;100.00
41862;BME280;27537;57.134;-2.136;2023-05-23T00:19:11;102087.75;;;11.55;100.00
41862;BME280;27537;57.134;-2.136;2023-05-23T00:21:41;102083.41;;;11.54;100.00
41862;BME280;27537;57.134;-2.136;2023-05-23T00:24:13;102085.13;;;11.55;100.00
41862;BME280;27537;57.134;-2.136;2023-05-23T00:26:44;102086.03;;;11.54;100.00
41862;BME280;27537;57.134;-2.136;2023-05-23T00:29:11;102088.66;;;11.52;100.00
41862;BME280;27537;57.134;-2.136;2023-05-23T00:31:42;102094.03;;;11.48;100.00
41862;BME280;27537;57.134;-2.136;2023-05-23T00:34:13;102093.22;;;11.44;100.00
41862;BME280;27537;57.134;-2.136;2023-05-23T00:36:40;102065.38;;;11.38;100.00
41862;BME280;27537;57.134;-2.136;2023-05-23T00:39:09;102090.44;;;11.52;100.00
41862;BME280;27537;57.134;-2.136;2023-05-23T00:41:49;102081.03;;;11.42;100.00
41862;BME280;27537;57.134;-2.136;2023-05-23T00:44:19;102064.66;;;11.29;100.00
41862;BME280;27537;57.134;-2.136;2023-05-23T00:46:50;102070.75;;;11.31;100.00
41862;BME280;27537;57.134;-2.136;2023-05-23T00:49:17;102077.75;;;11.30;100.00
41862;BME280;27537;57.134;-2.136;2023-05-23T00:51:46;102086.41;;;11.34;100.00
41862;BME280;27537;57.134;-2.136;2023-05-23T00:54:17;102071.53;;;11.36;100.00
41862;BME280;27537;57.134;-2.136;2023-05-23T00:56:46;102077.66;;;11.35;100.00
41862;BME280;27537;57.134;-2.136;2023-05-23T00:59:14;102087.16;;;11.42;100.00
41862;BME280;27537;57.134;-2.136;2023-05-23T01:01:42;102076.44;;;11.53;100.00
41862;BME280;27537;57.134;-2.136;2023-05-23T01:04:13;102076.31;;;11.57;100.00
41862;BME280;27537;57.134;-2.136;2023-05-23T01:06:42;102060.47;;;11.18;100.00
41862;BME280;27537;57.134;-2.136;2023-05-23T01:09:14;102075.97;;;11.32;100.00
41862;BME280;27537;57.134;-2.136;2023-05-23T01:12:07;102071.53;;;11.36;100.00
41862;BME280;27537;57.134;-2.136;2023-05-23T01:17:14;102073.97;;;11.44;100.00
41862;BME280;27537;57.134;-2.136;2023-05-23T01:20:08;102075.69;;;11.46;100.00
41862;BME280;27537;57.134;-2.136;2023-05-23T01:28:06;102087.00;;;11.48;100.00
41862;BME280;27537;57.134;-2.136;2023-05-23T01:30:39;102081.59;;;11.56;100.00
41862;BME280;27537;57.134;-2.136;2023-05-23T01:33:07;102081.56;;;11.57;100.00
41862;BME280;27537;57.134;-2.136;2023-05-23T01:35:35;102075.56;;;11.52;100.00
41862;BME280;27537;57.134;-2.136;2023-05-23T01:38:02;102059.97;;;11.46;100.00
41862;BME280;27537;57.134;-2.136;2023-05-23T01:40:29;102082.28;;;11.66;100.00
41862;BME280;27537;57.134;-2.136;2023-05-23T01:42:56;102062.75;;;11.38;100.00
41862;BME280;27537;57.134;-2.136;2023-05-23T01:45:25;102083.50;;;11.49;100.00
41862;BME280;27537;57.134;-2.136;2023-05-23T01:47:55;102078.41;;;11.42;100.00
41862;BME280;27537;57.134;-2.136;2023-05-23T01:50:23;102084.47;;;11.44;100.00
41862;BME280;27537;57.134;-2.136;2023-05-23T01:52:50;102074.91;;;11.41;100.00
41862;BME280;27537;57.134;-2.136;2023-05-23T01:55:19;102065.38;;;11.38;100.00
41862;BME280;27537;57.134;-2.136;2023-05-23T01:57:53;102077.28;;;11.55;100.00
41862;BME280;27537;57.134;-2.136;2023-05-23T02:00:20;102066.81;;;11.53;100.00
41862;BME280;27537;57.134;-2.136;2023-05-23T02:02:47;102062.66;;;11.42;100.00
41862;BME280;27537;57.134;-2.136;2023-05-23T02:05:14;102068.91;;;11.34;100.00
41862;BME280;27537;57.134;-2.136;2023-05-23T02:07:41;102053.59;;;11.14;100.00
41862;BME280;27537;57.134;-2.136;2023-05-23T02:10:08;102073.38;;;11.31;100.00
41862;BME280;27537;57.134;-2.136;2023-05-23T02:12:35;102081.47;;;11.17;100.00
41862;BME280;27537;57.134;-2.136;2023-05-23T02:15:02;102083.44;;;11.07;100.00
41862;BME280;27537;57.134;-2.136;2023-05-23T02:17:29;102077.63;;;10.88;100.00
41862;BME280;27537;57.134;-2.136;2023-05-23T02:19:56;102066.97;;;10.99;100.00
41862;BME280;27537;57.134;-2.136;2023-05-23T02:22:23;102068.66;;;11.03;100.00
41862;BME280;27537;57.134;-2.136;2023-05-23T02:24:51;102078.25;;;11.02;100.00
41862;BME280;27537;57.134;-2.136;2023-05-23T02:27:18;102076.19;;;10.72;100.00
41862;BME280;27537;57.134;-2.136;2023-05-23T02:29:45;102074.66;;;10.57;100.00
41862;BME280;27537;57.134;-2.136;2023-05-23T02:32:11;102083.38;;;10.59;100.00
41862;BME280;27537;57.134;-2.136;2023-05-23T02:34:38;102081.53;;;10.64;100.00
41862;BME280;27537;57.134;-2.136;2023-05-23T02:37:06;102037.94;;;10.60;100.00
41862;BME280;27537;57.134;-2.136;2023-05-23T02:39:36;102044.69;;;10.75;100.00
41862;BME280;27537;57.134;-2.136;2023-05-23T02:42:02;102058.47;;;10.85;100.00
41862;BME280;27537;57.134;-2.136;2023-05-23T02:44:30;102048.19;;;10.74;100.00
41862;BME280;27537;57.134;-2.136;2023-05-23T02:46:57;102047.56;;;10.61;100.00
41862;BME280;27537;57.134;-2.136;2023-05-23T02:49:23;102050.44;;;10.42;100.00
41862;BME280;27537;57.134;-2.136;2023-05-23T02:51:51;102036.00;;;10.17;100.00
41862;BME280;27537;57.134;-2.136;2023-05-23T02:54:17;102054.47;;;10.07;100.00
41862;BME280;27537;57.134;-2.136;2023-05-23T02:56:45;102058.78;;;10.08;100.00
41862;BME280;27537;57.134;-2.136;2023-05-23T02:59:12;102047.34;;;10.14;100.00
41862;BME280;27537;57.134;-2.136;2023-05-23T03:01:39;102040.28;;;10.21;100.00
41862;BME280;27537;57.134;-2.136;2023-05-23T03:04:06;102041.31;;;10.11;100.00
41862;BME280;27537;57.134;-2.136;2023-05-23T03:06:33;102035.41;;;9.96;100.00
41862;BME280;27537;57.134;-2.136;2023-05-23T03:09:02;102036.81;;;9.57;100.00
41862;BME280;27537;57.134;-2.136;2023-05-23T03:11:29;102000.63;;;9.23;100.00
41862;BME280;27537;57.134;-2.136;2023-05-23T03:13:56;102053.63;;;9.37;100.00
41862;BME280;27537;57.134;-2.136;2023-05-23T03:16:23;102048.38;;;9.37;100.00
41862;BME280;27537;57.134;-2.136;2023-05-23T03:18:50;102054.47;;;9.39;100.00
41862;BME280;27537;57.134;-2.136;2023-05-23T03:21:16;102061.34;;;9.46;100.00
41862;BME280;27537;57.134;-2.136;2023-05-23T03:23:43;102060.38;;;9.55;100.00
41862;BME280;27537;57.134;-2.136;2023-05-23T03:26:10;102060.47;;;9.47;100.00
41862;BME280;27537;57.134;-2.136;2023-05-23T03:28:37;102058.88;;;9.34;100.00
41862;BME280;27537;57.134;-2.136;2023-05-23T03:31:03;102062.31;;;9.36;100.00
41862;BME280;27537;57.134;-2.136;2023-05-23T03:33:30;102067.44;;;9.47;100.00
41862;BME280;27537;57.134;-2.136;2023-05-23T03:35:57;102055.25;;;9.46;100.00
41862;BME280;27537;57.134;-2.136;2023-05-23T03:38:24;102040.25;;;9.60;100.00
41862;BME280;27537;57.134;-2.136;2023-05-23T03:40:51;102025.63;;;9.45;100.00
41862;BME280;27537;57.134;-2.136;2023-05-23T03:43:18;102056.69;;;9.70;100.00
41862;BME280;27537;57.134;-2.136;2023-05-23T03:45:45;102045.75;;;9.40;100.00
41862;BME280;27537;57.134;-2.136;2023-05-23T03:48:11;102061.44;;;9.39;100.00
41862;BME280;27537;57.134;-2.136;2023-05-23T03:50:38;102054.44;;;9.42;100.00
41862;BME280;27537;57.134;-2.136;2023-05-23T03:53:05;102048.28;;;9.45;100.00
41862;BME280;27537;57.134;-2.136;2023-05-23T03:55:32;102011.00;;;9.30;100.00
41862;BME280;27537;57.134;-2.136;2023-05-23T03:57:59;102029.13;;;9.46;100.00
41862;BME280;27537;57.134;-2.136;2023-05-23T04:00:26;102037.72;;;9.54;100.00
41862;BME280;27537;57.134;-2.136;2023-05-23T04:02:53;102045.69;;;9.43;100.00
41862;BME280;27537;57.134;-2.136;2023-05-23T04:05:20;102048.31;;;9.42;100.00
41862;BME280;27537;57.134;-2.136;2023-05-23T04:07:47;102025.78;;;9.33;100.00
41862;BME280;27537;57.134;-2.136;2023-05-23T04:10:14;102049.81;;;9.61;100.00
41862;BME280;27537;57.134;-2.136;2023-05-23T04:12:42;102037.53;;;9.69;100.00
41862;BME280;27537;57.134;-2.136;2023-05-23T04:15:09;102024.50;;;9.65;100.00
41862;BME280;27537;57.134;-2.136;2023-05-23T04:17:36;102035.19;;;9.48;100.00
41862;BME280;27537;57.134;-2.136;2023-05-23T04:20:06;102031.63;;;9.52;100.00
41862;BME280;27537;57.134;-2.136;2023-05-23T04:22:35;102015.19;;;9.44;100.00
41862;BME280;27537;57.134;-2.136;2023-05-23T04:25:02;102001.31;;;9.40;100.00
41862;BME280;27537;57.134;-2.136;2023-05-23T04:27:29;102038.03;;;9.96;100.00
41862;BME280;27537;57.134;-2.136;2023-05-23T04:29:56;102038.19;;;10.44;100.00
41862;BME280;27537;57.134;-2.136;2023-05-23T04:32:24;102037.81;;;10.68;100.00
41862;BME280;27537;57.134;-2.136;2023-05-23T04:34:51;102032.34;;;10.80;100.00
41862;BME280;27537;57.134;-2.136;2023-05-23T04:37:18;102031.84;;;11.08;100.00
41862;BME280;27537;57.134;-2.136;2023-05-23T04:39:51;102032.44;;;11.24;100.00
41862;BME280;27537;57.134;-2.136;2023-05-23T04:42:18;102028.06;;;11.66;100.00
41862;BME280;27537;57.134;-2.136;2023-05-23T04:44:50;102024.09;;;11.47;100.00
41862;BME280;27537;57.134;-2.136;2023-05-23T04:47:18;102031.47;;;11.28;100.00
41862;BME280;27537;57.134;-2.136;2023-05-23T04:49:45;102030.09;;;10.60;100.00
41862;BME280;27537;57.134;-2.136;2023-05-23T04:52:11;102034.84;;;10.38;100.00
41862;BME280;27537;57.134;-2.136;2023-05-23T04:54:38;102026.31;;;10.23;100.00
41862;BME280;27537;57.134;-2.136;2023-05-23T04:57:10;102036.97;;;10.66;100.00
41862;BME280;27537;57.134;-2.136;2023-05-23T04:59:37;102026.72;;;10.53;100.00
41862;BME280;27537;57.134;-2.136;2023-05-23T05:02:05;102013.75;;;10.45;100.00
41862;BME280;27537;57.134;-2.136;2023-05-23T05:04:32;102030.13;;;10.57;100.00
41862;BME280;27537;57.134;-2.136;2023-05-23T05:06:58;102032.09;;;10.45;100.00
41862;BME280;27537;57.134;-2.136;2023-05-23T05:09:25;102031.44;;;10.31;100.00
41862;BME280;27537;57.134;-2.136;2023-05-23T05:11:52;102036.97;;;10.10;100.00
41862;BME280;27537;57.134;-2.136;2023-05-23T05:14:19;102038.59;;;10.18;100.00
41862;BME280;27537;57.134;-2.136;2023-05-23T05:16:46;102043.91;;;10.12;100.00
41862;BME280;27537;57.134;-2.136;2023-05-23T05:19:14;102011.88;;;9.96;100.00
41862;BME280;27537;57.134;-2.136;2023-05-23T05:21:41;102034.03;;;10.33;100.00
41862;BME280;27537;57.134;-2.136;2023-05-23T05:24:07;102022.47;;;10.44;100.00
41862;BME280;27537;57.134;-2.136;2023-05-23T05:26:38;102021.47;;;10.53;100.00
41862;BME280;27537;57.134;-2.136;2023-05-23T05:29:05;102012.13;;;10.38;100.00
41862;BME280;27537;57.134;-2.136;2023-05-23T05:31:31;102018.19;;;10.40;100.00
41862;BME280;27537;57.134;-2.136;2023-05-23T05:33:58;102019.75;;;10.54;100.00
41862;BME280;27537;57.134;-2.136;2023-05-23T05:36:25;102017.84;;;10.62;100.00
41862;BME280;27537;57.134;-2.136;2023-05-23T05:38:52;102012.94;;;10.92;100.00
41862;BME280;27537;57.134;-2.136;2023-05-23T05:41:18;102014.72;;;10.90;100.00
41862;BME280;27537;57.134;-2.136;2023-05-23T05:43:45;102010.16;;;10.99;100.00
41862;BME280;27537;57.134;-2.136;2023-05-23T05:46:12;102005.84;;;10.98;100.00
41862;BME280;27537;57.134;-2.136;2023-05-23T05:48:39;102010.00;;;11.09;100.00
41862;BME280;27537;57.134;-2.136;2023-05-23T05:51:06;102005.09;;;10.90;100.00
41862;BME280;27537;57.134;-2.136;2023-05-23T05:53:33;102019.13;;;11.75;100.00
41862;BME280;27537;57.134;-2.136;2023-05-23T05:55:59;102013.97;;;12.47;100.00
41862;BME280;27537;57.134;-2.136;2023-05-23T05:58:26;102019.66;;;12.97;100.00
41862;BME280;27537;57.134;-2.136;2023-05-23T06:00:53;102017.81;;;13.34;100.00
41862;BME280;27537;57.134;-2.136;2023-05-23T06:03:20;102012.75;;;13.85;100.00
41862;BME280;27537;57.134;-2.136;2023-05-23T06:05:47;102024.31;;;14.10;100.00
41862;BME280;27537;57.134;-2.136;2023-05-23T06:08:14;102015.25;;;14.45;100.00
41862;BME280;27537;57.134;-2.136;2023-05-23T06:10:41;102017.56;;;15.06;100.00
41862;BME280;27537;57.134;-2.136;2023-05-23T06:13:08;102019.69;;;15.67;100.00
41862;BME280;27537;57.134;-2.136;2023-05-23T06:15:35;102026.47;;;16.20;100.00
41862;BME280;27537;57.134;-2.136;2023-05-23T06:18:02;102023.97;;;15.93;100.00
41862;BME280;27537;57.134;-2.136;2023-05-23T06:20:28;102028.34;;;15.47;100.00
41862;BME280;27537;57.134;-2.136;2023-05-23T06:22:55;102023.78;;;15.29;100.00
41862;BME280;27537;57.134;-2.136;2023-05-23T06:25:22;102022.13;;;15.01;100.00
41862;BME280;27537;57.134;-2.136;2023-05-23T06:27:49;102003.97;;;15.17;100.00
41862;BME280;27537;57.134;-2.136;2023-05-23T06:30:16;102024.28;;;15.15;100.00
41862;BME280;27537;57.134;-2.136;2023-05-23T06:32:42;102018.22;;;15.36;100.00
41862;BME280;27537;57.134;-2.136;2023-05-23T06:35:09;102015.84;;;15.05;100.00
41862;BME280;27537;57.134;-2.136;2023-05-23T06:37:36;102023.72;;;15.54;100.00
41862;BME280;27537;57.134;-2.136;2023-05-23T06:40:03;102020.31;;;15.74;100.00
41862;BME280;27537;57.134;-2.136;2023-05-23T06:42:31;102021.22;;;16.19;100.00
41862;BME280;27537;57.134;-2.136;2023-05-23T06:44:57;102019.50;;;16.18;100.00
41862;BME280;27537;57.134;-2.136;2023-05-23T06:47:24;102019.00;;;16.30;100.00
41862;BME280;27537;57.134;-2.136;2023-05-23T06:49:51;102010.72;;;17.01;100.00
41862;BME280;27537;57.134;-2.136;2023-05-23T06:52:18;102007.69;;;16.89;100.00
41862;BME280;27537;57.134;-2.136;2023-05-23T06:54:45;102005.03;;;17.29;100.00
41862;BME280;27537;57.134;-2.136;2023-05-23T06:57:11;101999.06;;;17.44;100.00
41862;BME280;27537;57.134;-2.136;2023-05-23T06:59:38;102006.88;;;17.08;100.00
41862;BME280;27537;57.134;-2.136;2023-05-23T07:02:05;102005.03;;;16.48;100.00
41862;BME280;27537;57.134;-2.136;2023-05-23T07:04:32;102006.19;;;17.23;100.00
41862;BME280;27537;57.134;-2.136;2023-05-23T07:06:58;102010.22;;;18.26;100.00
41862;BME280;27537;57.134;-2.136;2023-05-23T07:09:25;102012.84;;;18.43;100.00
41862;BME280;27537;57.134;-2.136;2023-05-23T07:11:52;102019.34;;;18.72;100.00
41862;BME280;27537;57.134;-2.136;2023-05-23T07:14:19;101999.53;;;17.72;100.00
41862;BME280;27537;57.134;-2.136;2023-05-23T07:16:46;102022.22;;;18.33;100.00
41862;BME280;27537;57.134;-2.136;2023-05-23T07:19:13;102011.81;;;18.11;98.90
41862;BME280;27537;57.134;-2.136;2023-05-23T07:21:40;102021.22;;;17.23;99.15
41862;BME280;27537;57.134;-2.136;2023-05-23T07:24:06;102020.88;;;17.10;100.00
41862;BME280;27537;57.134;-2.136;2023-05-23T07:26:33;102022.31;;;16.98;99.41
41862;BME280;27537;57.134;-2.136;2023-05-23T07:29:00;102023.25;;;18.11;98.57
41862;BME280;27537;57.134;-2.136;2023-05-23T07:31:27;102020.38;;;18.70;100.00
41862;BME280;27537;57.134;-2.136;2023-05-23T07:33:53;102031.19;;;18.30;84.24
41862;BME280;27537;57.134;-2.136;2023-05-23T07:36:22;102020.81;;;18.26;93.23
41862;BME280;27537;57.134;-2.136;2023-05-23T07:38:49;102002.88;;;18.66;81.03
41862;BME280;27537;57.134;-2.136;2023-05-23T07:41:15;102022.25;;;18.50;80.73
41862;BME280;27537;57.134;-2.136;2023-05-23T07:43:42;102007.91;;;18.89;92.84
41862;BME280;27537;57.134;-2.136;2023-05-23T07:46:09;102007.88;;;19.39;88.37
41862;BME280;27537;57.134;-2.136;2023-05-23T07:48:36;101981.59;;;19.34;83.74
41862;BME280;27537;57.134;-2.136;2023-05-23T07:51:03;102002.72;;;19.53;84.94
41862;BME280;27537;57.134;-2.136;2023-05-23T07:53:30;101999.94;;;19.39;66.71
41862;BME280;27537;57.134;-2.136;2023-05-23T07:55:57;101988.56;;;19.03;70.39
41862;BME280;27537;57.134;-2.136;2023-05-23T07:58:23;101995.09;;;19.13;71.05
41862;BME280;27537;57.134;-2.136;2023-05-23T08:00:50;101988.03;;;19.94;69.63
41862;BME280;27537;57.134;-2.136;2023-05-23T08:03:18;101987.44;;;20.35;67.52
41862;BME280;27537;57.134;-2.136;2023-05-23T08:05:46;101998.47;;;20.73;65.95
41862;BME280;27537;57.134;-2.136;2023-05-23T08:08:13;101995.09;;;20.55;64.17
41862;BME280;27537;57.134;-2.136;2023-05-23T08:10:40;102009.81;;;19.68;62.53
41862;BME280;27537;57.134;-2.136;2023-05-23T08:13:09;102012.84;;;19.29;70.33
41862;BME280;27537;57.134;-2.136;2023-05-23T08:15:35;101990.44;;;19.66;68.73
41862;BME280;27537;57.134;-2.136;2023-05-23T08:18:03;101995.53;;;19.87;70.44
41862;BME280;27537;57.134;-2.136;2023-05-23T08:20:30;101986.94;;;19.66;68.74
41862;BME280;27537;57.134;-2.136;2023-05-23T08:22:58;101988.84;;;20.26;67.17
41862;BME280;27537;57.134;-2.136;2023-05-23T08:25:26;101996.28;;;19.89;67.98
41862;BME280;27537;57.134;-2.136;2023-05-23T08:27:57;101988.06;;;19.78;68.55
41862;BME280;27537;57.134;-2.136;2023-05-23T08:30:25;101971.13;;;18.82;71.94
41862;BME280;27537;57.134;-2.136;2023-05-23T08:32:53;101973.66;;;19.01;70.80
41862;BME280;27537;57.134;-2.136;2023-05-23T08:35:21;101963.81;;;20.44;70.73
41862;BME280;27537;57.134;-2.136;2023-05-23T08:37:49;101974.28;;;20.17;67.04
41862;BME280;27537;57.134;-2.136;2023-05-23T08:40:21;101974.66;;;19.31;73.29
41862;BME280;27537;57.134;-2.136;2023-05-23T08:42:49;101965.13;;;20.07;69.05
41862;BME280;27537;57.134;-2.136;2023-05-23T08:45:16;101964.59;;;20.16;68.30
41862;BME280;27537;57.134;-2.136;2023-05-23T08:47:45;101965.78;;;20.41;69.42
41862;BME280;27537;57.134;-2.136;2023-05-23T08:50:17;101945.00;;;20.03;68.86
41862;BME280;27537;57.134;-2.136;2023-05-23T08:52:55;101949.66;;;19.67;66.46
41862;BME280;27537;57.134;-2.136;2023-05-23T08:55:27;101931.66;;;20.19;69.80
41862;BME280;27537;57.134;-2.136;2023-05-23T08:57:57;101946.97;;;20.74;63.09
41862;BME280;27537;57.134;-2.136;2023-05-23T09:00:26;101944.78;;;20.06;65.19
41862;BME280;27537;57.134;-2.136;2023-05-23T09:02:53;101943.31;;;19.54;67.88
41862;BME280;27537;57.134;-2.136;2023-05-23T09:05:20;101945.28;;;20.57;67.35
41862;BME280;27537;57.134;-2.136;2023-05-23T09:07:48;101929.91;;;20.48;67.35
41862;BME280;27537;57.134;-2.136;2023-05-23T09:10:18;101915.13;;;20.73;66.90
41862;BME280;27537;57.134;-2.136;2023-05-23T09:12:48;101922.25;;;21.57;64.08
41862;BME280;27537;57.134;-2.136;2023-05-23T09:15:15;101918.78;;;21.28;59.28
41862;BME280;27537;57.134;-2.136;2023-05-23T09:17:43;101934.41;;;21.61;62.05
41862;BME280;27537;57.134;-2.136;2023-05-23T09:20:12;101929.19;;;20.75;65.52
41862;BME280;27537;57.134;-2.136;2023-05-23T09:22:40;101921.06;;;20.47;66.24
41862;BME280;27537;57.134;-2.136;2023-05-23T09:25:11;101922.25;;;19.97;67.23
41862;BME280;27537;57.134;-2.136;2023-05-23T09:27:38;101922.81;;;19.40;70.13
41862;BME280;27537;57.134;-2.136;2023-05-23T09:30:10;101923.00;;;19.69;72.56
41862;BME280;27537;57.134;-2.136;2023-05-23T09:32:38;101918.22;;;20.06;72.49
41862;BME280;27537;57.134;-2.136;2023-05-23T09:35:06;101915.97;;;19.68;76.09
41862;BME280;27537;57.134;-2.136;2023-05-23T09:37:44;101907.06;;;19.05;79.36
41862;BME280;27537;57.134;-2.136;2023-05-23T09:40:15;101925.06;;;19.16;84.11
41862;BME280;27537;57.134;-2.136;2023-05-23T09:42:43;101877.69;;;19.08;91.15
41862;BME280;27537;57.134;-2.136;2023-05-23T09:45:12;101912.44;;;18.88;88.04
41862;BME280;27537;57.134;-2.136;2023-05-23T09:47:50;101908.69;;;19.24;94.98
41862;BME280;27537;57.134;-2.136;2023-05-23T09:50:19;101916.91;;;18.70;100.00
41862;BME280;27537;57.134;-2.136;2023-05-23T09:52:47;101919.00;;;18.81;100.00
41862;BME280;27537;57.134;-2.136;2023-05-23T09:55:14;101909.09;;;18.84;100.00
41862;BME280;27537;57.134;-2.136;2023-05-23T09:57:42;101902.06;;;18.66;100.00
41862;BME280;27537;57.134;-2.136;2023-05-23T10:00:10;101905.78;;;18.46;100.00
41862;BME280;27537;57.134;-2.136;2023-05-23T10:08:00;101907.03;;;17.86;100.00
41862;BME280;27537;57.134;-2.136;2023-05-23T10:10:31;101901.59;;;18.07;100.00
41862;BME280;27537;57.134;-2.136;2023-05-23T10:13:03;101893.44;;;18.45;100.00
41862;BME280;27537;57.134;-2.136;2023-05-23T10:15:36;101897.09;;;18.59;100.00
41862;BME280;27537;57.134;-2.136;2023-05-23T10:18:37;101893.38;;;18.29;100.00
41862;BME280;27537;57.134;-2.136;2023-05-23T10:21:11;101888.91;;;18.13;100.00
41862;BME280;27537;57.134;-2.136;2023-05-23T10:23:44;101890.34;;;18.54;100.00
41862;BME280;27537;57.134;-2.136;2023-05-23T10:26:14;101889.25;;;18.40;99.89
41862;BME280;27537;57.134;-2.136;2023-05-23T10:28:44;101887.00;;;18.50;94.68
41862;BME280;27537;57.134;-2.136;2023-05-23T10:31:12;101885.38;;;18.30;100.00
41862;BME280;27537;57.134;-2.136;2023-05-23T10:33:42;101888.47;;;18.38;100.00
41862;BME280;27537;57.134;-2.136;2023-05-23T10:36:32;101876.53;;;18.81;100.00
41862;BME280;27537;57.134;-2.136;2023-05-23T10:42:18;101876.91;;;19.54;100.00
41862;BME280;27537;57.134;-2.136;2023-05-23T10:44:48;101858.00;;;19.90;100.00
41862;BME280;27537;57.134;-2.136;2023-05-23T10:47:27;101865.09;;;19.44;100.00
41862;BME280;27537;57.134;-2.136;2023-05-23T10:49:54;101865.47;;;19.22;100.00
41862;BME280;27537;57.134;-2.136;2023-05-23T10:52:23;101862.81;;;19.06;100.00
41862;BME280;27537;57.134;-2.136;2023-05-23T10:54:54;101853.31;;;19.18;100.00
41862;BME280;27537;57.134;-2.136;2023-05-23T10:57:25;101858.88;;;19.13;98.41
41862;BME280;27537;57.134;-2.136;2023-05-23T10:59:54;101858.69;;;19.16;99.21
41862;BME280;27537;57.134;-2.136;2023-05-23T11:02:27;101848.25;;;19.75;97.79
41862;BME280;27537;57.134;-2.136;2023-05-23T11:08:12;101858.09;;;19.11;100.00
41862;BME280;27537;57.134;-2.136;2023-05-23T11:13:22;101836.91;;;19.41;100.00
41862;BME280;27537;57.134;-2.136;2023-05-23T11:15:49;101840.06;;;18.68;100.00
41862;BME280;27537;57.134;-2.136;2023-05-23T11:18:21;101828.38;;;18.88;100.00
41862;BME280;27537;57.134;-2.136;2023-05-23T11:20:51;101820.81;;;19.44;100.00
41862;BME280;27537;57.134;-2.136;2023-05-23T11:23:21;101831.19;;;18.85;100.00
41862;BME280;27537;57.134;-2.136;2023-05-23T11:25:50;101826.94;;;18.65;100.00
41862;BME280;27537;57.134;-2.136;2023-05-23T11:28:18;101828.00;;;18.12;100.00
41862;BME280;27537;57.134;-2.136;2023-05-23T11:30:48;101820.66;;;18.34;100.00
41862;BME280;27537;57.134;-2.136;2023-05-23T11:33:16;101817.66;;;18.07;100.00
41862;BME280;27537;57.134;-2.136;2023-05-23T11:35:46;101813.00;;;18.28;100.00
41862;BME280;27537;57.134;-2.136;2023-05-23T11:38:16;101816.47;;;18.46;100.00
41862;BME280;27537;57.134;-2.136;2023-05-23T11:40:45;101810.13;;;18.66;100.00
41862;BME280;27537;57.134;-2.136;2023-05-23T11:43:14;101818.50;;;18.08;100.00
41862;BME280;27537;57.134;-2.136;2023-05-23T11:45:42;101813.19;;;18.08;100.00
41862;BME280;27537;57.134;-2.136;2023-05-23T11:48:14;101817.97;;;18.18;100.00
41862;BME280;27537;57.134;-2.136;2023-05-23T11:50:52;101811.25;;;17.76;100.00
41862;BME280;27537;57.134;-2.136;2023-05-23T11:53:21;101812.88;;;17.79;100.00
41862;BME280;27537;57.134;-2.136;2023-05-23T11:55:52;101817.47;;;17.75;100.00
41862;BME280;27537;57.134;-2.136;2023-05-23T11:58:21;101828.81;;;17.96;100.00
41862;BME280;27537;57.134;-2.136;2023-05-23T12:00:57;101828.63;;;17.82;100.00
41862;BME280;27537;57.134;-2.136;2023-05-23T12:03:24;101826.16;;;17.96;100.00
41862;BME280;27537;57.134;-2.136;2023-05-23T12:05:53;101843.44;;;18.03;100.00
41862;BME280;27537;57.134;-2.136;2023-05-23T12:08:20;101834.38;;;17.55;100.00
41862;BME280;27537;57.134;-2.136;2023-05-23T12:11:00;101839.88;;;17.51;100.00
41862;BME280;27537;57.134;-2.136;2023-05-23T12:13:28;101847.31;;;17.79;100.00
41862;BME280;27537;57.134;-2.136;2023-05-23T12:15:57;101847.28;;;17.61;100.00
41862;BME280;27537;57.134;-2.136;2023-05-23T12:18:30;101848.81;;;17.67;100.00
41862;BME280;27537;57.134;-2.136;2023-05-23T12:21:03;101849.81;;;17.82;100.00
41862;BME280;27537;57.134;-2.136;2023-05-23T12:23:32;101834.91;;;17.44;100.00
41862;BME280;27537;57.134;-2.136;2023-05-23T12:26:03;101833.03;;;17.46;100.00
41862;BME280;27537;57.134;-2.136;2023-05-23T12:28:44;101825.47;;;17.39;100.00
41862;BME280;27537;57.134;-2.136;2023-05-23T12:31:18;101816.84;;;17.70;100.00
41862;BME280;27537;57.134;-2.136;2023-05-23T12:33:47;101820.44;;;17.52;100.00
41862;BME280;27537;57.134;-2.136;2023-05-23T12:36:23;101792.41;;;17.48;100.00
41862;BME280;27537;57.134;-2.136;2023-05-23T12:38:50;101815.16;;;17.69;100.00
41862;BME280;27537;57.134;-2.136;2023-05-23T12:41:18;101816.22;;;17.48;100.00
41862;BME280;27537;57.134;-2.136;2023-05-23T12:43:50;101805.34;;;17.35;100.00
41862;BME280;27537;57.134;-2.136;2023-05-23T12:46:19;101805.19;;;17.20;100.00
41862;BME280;27537;57.134;-2.136;2023-05-23T12:48:47;101786.47;;;17.42;100.00
41862;BME280;27537;57.134;-2.136;2023-05-23T12:51:16;101781.44;;;17.19;100.00
41862;BME280;27537;57.134;-2.136;2023-05-23T12:53:43;101782.34;;;17.00;100.00
41862;BME280;27537;57.134;-2.136;2023-05-23T12:56:10;101781.19;;;17.42;100.00
41862;BME280;27537;57.134;-2.136;2023-05-23T12:58:37;101792.53;;;17.44;100.00
41862;BME280;27537;57.134;-2.136;2023-05-23T13:01:05;101799.25;;;18.04;100.00
41862;BME280;27537;57.134;-2.136;2023-05-23T13:03:33;101795.63;;;17.89;100.00